TimeCDT,TemperatureF,Dew PointF,Humidity,Sea Level PressureIn,VisibilityMPH,Wind Direction,Wind SpeedMPH,Gust SpeedMPH,PrecipitationIn,Events,Conditions,WindDirDegrees,DateUTC
12:53 AM,45.0,42.1,90,29.83,10.0,NE,6.9,-,N/A,,Overcast,40,2012-10-14 05:53:00
1:04 AM,44.6,42.8,93,29.81,10.0,NE,6.9,-,N/A,,Overcast,50,2012-10-14 06:04:00
1:53 AM,44.1,42.1,93,29.83,10.0,NNE,9.2,-,N/A,,Overcast,30,2012-10-14 06:53:00
2:53 AM,43.0,41.0,93,29.82,10.0,NE,8.1,-,N/A,,Overcast,50,2012-10-14 07:53:00
3:53 AM,43.0,39.9,89,29.83,10.0,NE,8.1,-,N/A,,Overcast,40,2012-10-14 08:53:00
4:53 AM,42.1,39.9,92,29.83,10.0,ENE,6.9,-,N/A,,Overcast,60,2012-10-14 09:53:00
5:53 AM,43.0,39.0,86,29.83,10.0,NE,6.9,-,N/A,,Overcast,50,2012-10-14 10:53:00
6:43 AM,42.8,39.2,87,29.80,10.0,NE,9.2,-,N/A,,Overcast,40,2012-10-14 11:43:00
6:53 AM,42.1,39.0,89,29.82,10.0,NE,6.9,-,N/A,,Overcast,40,2012-10-14 11:53:00
7:53 AM,43.0,39.0,86,29.81,10.0,NNE,12.7,-,N/A,,Overcast,30,2012-10-14 12:53:00
8:10 AM,42.8,39.2,87,29.79,10.0,NNE,12.7,-,N/A,,Overcast,30,2012-10-14 13:10:00
8:32 AM,42.8,39.2,87,29.80,10.0,NNE,11.5,-,N/A,,Overcast,30,2012-10-14 13:32:00
8:53 AM,43.0,39.0,86,29.82,10.0,NNE,10.4,-,N/A,,Overcast,30,2012-10-14 13:53:00
9:14 AM,44.6,39.2,81,29.80,10.0,NNE,11.5,-,N/A,,Overcast,30,2012-10-14 14:14:00
9:53 AM,45.0,39.9,82,29.82,10.0,NNE,13.8,-,N/A,,Overcast,20,2012-10-14 14:53:00
10:41 AM,44.6,39.2,81,29.80,10.0,NE,11.5,-,N/A,,Overcast,40,2012-10-14 15:41:00
10:53 AM,45.0,39.0,80,29.81,10.0,NE,11.5,-,N/A,,Overcast,40,2012-10-14 15:53:00
11:22 AM,44.6,39.2,81,29.79,10.0,North,18.4,-,N/A,,Overcast,10,2012-10-14 16:22:00
11:33 AM,44.6,39.2,81,29.79,10.0,North,16.1,-,N/A,,Overcast,10,2012-10-14 16:33:00
11:53 AM,45.0,37.9,76,29.81,10.0,NNE,15.0,-,N/A,,Overcast,20,2012-10-14 16:53:00
12:53 PM,46.9,39.0,74,29.79,10.0,NNE,13.8,-,N/A,,Overcast,30,2012-10-14 17:53:00
1:24 PM,44.6,39.2,81,29.76,9.0,NNE,16.1,-,N/A,,Overcast,30,2012-10-14 18:24:00
1:51 PM,42.8,39.2,87,29.77,2.5,NNE,13.8,-,N/A,,Overcast,20,2012-10-14 18:51:00
1:53 PM,43.0,41.0,93,29.79,2.5,North,15.0,-,N/A,,Overcast,10,2012-10-14 18:53:00
2:14 PM,42.8,39.2,87,29.77,1.5,NNE,15.0,-,N/A,,Overcast,20,2012-10-14 19:14:00
2:40 PM,42.8,39.2,87,29.78,2.0,NNE,9.2,-,N/A,,Overcast,20,2012-10-14 19:40:00
3:53 PM,42.1,41.0,96,29.81,2.0,North,9.2,-,N/A,,Overcast,350,2012-10-14 20:53:00
4:08 PM,42.8,39.2,87,29.79,4.0,North,8.1,-,N/A,,Overcast,360,2012-10-14 21:08:00
4:26 PM,42.8,41.0,93,29.79,2.5,North,8.1,-,N/A,,Overcast,10,2012-10-14 21:26:00
4:34 PM,42.8,41.0,93,29.79,3.0,North,8.1,-,N/A,,Overcast,10,2012-10-14 21:34:00
4:53 PM,43.0,41.0,93,29.83,6.0,North,8.1,-,N/A,,Overcast,360,2012-10-14 21:53:00
5:41 PM,42.8,39.2,87,29.81,10.0,North,6.9,-,N/A,,Overcast,10,2012-10-14 22:41:00
5:53 PM,43.0,39.9,89,29.84,10.0,NNE,6.9,-,N/A,,Overcast,20,2012-10-14 22:53:00
6:21 PM,42.8,39.2,87,29.82,10.0,North,3.5,-,N/A,,Overcast,350,2012-10-14 23:21:00
6:53 PM,42.1,39.9,92,29.84,10.0,Calm,Calm,-,N/A,,Overcast,0,2012-10-14 23:53:00
7:53 PM,39.0,37.0,93,29.85,6.0,Calm,Calm,-,N/A,,Clear,0,2012-10-15 00:53:00
8:21 PM,37.4,35.6,93,29.83,1.8,Calm,Calm,-,N/A,,Clear,0,2012-10-15 01:21:00
8:35 PM,35.6,35.6,100,29.83,3.0,West,3.5,-,N/A,,Clear,270,2012-10-15 01:35:00
8:48 PM,35.6,33.8,93,29.83,1.8,West,3.5,-,N/A,,Clear,260,2012-10-15 01:48:00
8:53 PM,35.1,34.0,96,29.86,0.8,West,3.5,-,N/A,,Clear,270,2012-10-15 01:53:00
9:12 PM,35.6,33.8,93,29.84,2.0,West,3.5,-,N/A,,Clear,280,2012-10-15 02:12:00
9:20 PM,35.6,33.8,93,29.84,7.0,West,3.5,-,N/A,,Clear,280,2012-10-15 02:20:00
9:53 PM,34.0,33.1,96,29.87,10.0,WNW,3.5,-,N/A,,Clear,290,2012-10-15 02:53:00
10:53 PM,33.1,32.0,96,29.88,8.0,Calm,Calm,-,N/A,,Clear,0,2012-10-15 03:53:00
11:09 PM,30.2,30.2,100,29.85,2.5,East,3.5,-,N/A,,Clear,100,2012-10-15 04:09:00
11:16 PM,33.8,30.2,87,29.84,9.0,Calm,Calm,-,N/A,,Clear,0,2012-10-15 04:16:00
11:53 PM,33.1,30.9,92,29.87,10.0,Calm,Calm,-,N/A,,Clear,0,2012-10-15 04:53:00